Macomb, IL (61455)

8:11 AM CST on January 20, 2017 (GMT -0600)
Tillman Hall - WIU Geography | | Change Station
Active Advisory: Dense Fog Advisory

Elev 712 ft 40.46 °N, 90.68 °W | Updated 11 minutes ago

Fog
Fog
39.5 °F
Feels Like 40 °F
N
0.0
Wind Variable Wind from ESE
Gusts 0.0 mph

Today
High -- | Low -- °F
--% Chance of Precip.
Yesterday
High -- | Low -- °F
Precip. -- in
Pressure 29.67 in
Visibility 0.5 miles
Clouds Overcast 400 ft
Windchill 40 °F
Dew Point 38 °F
Humidity 94%
Rainfall 0.00 in
Snow Depth Not available.
7:21 AM 5:06 PM
Last Quarter, 44% visible
METAR KMQB 201355Z AUTO 00000KT 1/2SM FG OVC004 02/02 A2967 RMK AO2 T00230023
Pressure 29.67 in
Visibility 0.5 miles
Clouds Overcast 400 ft
Windchill 40 °F
Dew Point 38 °F
Humidity 94%
Rainfall 0.00 in
Snow Depth Not available.
7:21 AM 5:06 PM
Last Quarter, 44% visible
METAR KMQB 201355Z AUTO 00000KT 1/2SM FG OVC004 02/02 A2967 RMK AO2 T00230023

Get Your Daily Forecast Email!

Thanks for signing up!

Be on the lookout for a verification email in your inbox.

You'll start receiving the daily forecast at 8 AM.

×

10-Day Weather Forecast

Almanac

Astronomy

Jan. 20, 2017 Rise Set
Actual Time
Civil Twilight
Nautical Twilight
Astronomical Twilight
Moon
Length of Visible Light
Length of Day
Tomorrow will be .
, % of the Moon is Illuminated

Today's Extremes

State Highs State Lows

Community

WunderPhotos

Upload Photos

1,962,540 photos uploaded!

WunderBlog® & News

Nearby

Air Quality

  Air Quality AQ Index Pollutant
Not available.

Snow Depth

Station Depth Elevation

Earthquake Activity

City Distance Mag. Time & Date
Minimum magnitude displayed is 2.5.

Coastal Water Temperatures

Place Temperature

Stations

Nearby Weather Stations

Station Location Temp. Windchill Dew Point Humidity Wind Precip. Elev Updated Type
                   

Watches & Warnings

Dense Fog Advisory
Issued: 4:02 AM CST Jan. 20, 2017 – National Weather Service

... Dense fog advisory now in effect until noon CST today...

* timing... through this morning.

* Visibility... less than 1/4 mile at times.

* Impacts... dangerous driving conditions.

Precautionary/preparedness actions...

A dense fog advisory means visibilities will frequently be
reduced to less than one quarter mile. If driving... slow down...
use your headlights... and leave plenty of distance ahead of you.